Time;durP1;ratioP1;P1;durP2;ratioP2;P2;SDS_P1;SDS_P2;PMS_P1;PMS_P2;Temp;Humidity;BMP_temperature;BMP_pressure;BME280_temperature;BME280_humidity;BME280_pressure;Samples;Min_cycle;Max_cycle;Signal;HPM_P1;HPM_P2
2024/04/21 00:00:37;;;;;;;22.77;4.45;;;7.80;99.90;;;;;;6342083;22;19995;-92
2024/04/21 00:03:03;;;;;;;16.58;4.78;;;7.70;99.90;;;;;;6344165;22;19999;-92
2024/04/21 00:05:28;;;;;;;17.42;4.10;;;7.80;99.90;;;;;;6345577;22;19999;-93
2024/04/21 00:07:54;;;;;;;11.38;3.63;;;7.80;99.90;;;;;;6343305;22;19999;-92
2024/04/21 00:10:20;;;;;;;12.23;2.95;;;7.80;99.90;;;;;;6342843;22;20006;-94
2024/04/21 00:12:45;;;;;;;13.07;3.95;;;7.80;99.90;;;;;;6303066;22;20006;-92
2024/04/21 00:15:11;;;;;;;13.20;3.60;;;7.80;99.90;;;;;;6343650;22;20075;-93
2024/04/21 00:17:36;;;;;;;11.15;2.80;;;7.80;99.90;;;;;;6388029;22;19995;-92
2024/04/21 00:20:02;;;;;;;11.85;2.58;;;7.70;99.90;;;;;;6349737;22;20003;-93
2024/04/21 00:22:28;;;;;;;10.48;3.03;;;7.70;99.90;;;;;;6351112;22;19999;-93
2024/04/21 00:24:54;;;;;;;12.10;2.70;;;7.70;99.90;;;;;;6351705;22;19995;-92
2024/04/21 00:27:19;;;;;;;10.18;2.67;;;7.70;99.90;;;;;;6353931;22;19995;-91
2024/04/21 00:29:45;;;;;;;12.50;2.70;;;7.70;99.90;;;;;;6347857;22;19995;-91
2024/04/21 00:32:11;;;;;;;19.60;3.72;;;7.70;99.90;;;;;;6342288;22;19999;-92
2024/04/21 00:34:37;;;;;;;18.23;3.03;;;7.70;99.90;;;;;;6343026;22;20020;-92
2024/04/21 00:37:04;;;;;;;15.40;3.88;;;7.70;99.90;;;;;;6342285;22;20038;-91
2024/04/21 00:39:29;;;;;;;16.13;2.65;;;7.60;99.90;;;;;;6342515;22;20070;-93
2024/04/21 00:41:55;;;;;;;10.70;2.78;;;7.60;99.90;;;;;;6340356;22;19991;-92
2024/04/21 00:44:21;;;;;;;15.57;3.47;;;7.60;99.90;;;;;;6340134;22;20018;-92
2024/04/21 00:46:47;;;;;;;15.85;3.00;;;7.60;99.90;;;;;;6340971;22;19995;-93
2024/04/21 00:49:13;;;;;;;10.18;2.67;;;7.60;99.90;;;;;;6341027;22;19991;-93
2024/04/21 00:51:39;;;;;;;11.77;3.00;;;7.50;99.90;;;;;;6348579;22;19991;-93
2024/04/21 00:54:06;;;;;;;9.73;3.58;;;7.50;99.90;;;;;;6351249;22;20011;-93
2024/04/21 00:56:34;;;;;;;12.60;3.20;;;7.50;99.90;;;;;;6349418;22;19998;-93
2024/04/21 00:59:01;;;;;;;8.15;2.58;;;7.40;99.90;;;;;;6349532;22;19999;-92
2024/04/21 01:01:26;;;;;;;13.18;3.22;;;7.40;99.90;;;;;;6344483;22;19991;-93
2024/04/21 01:03:52;;;;;;;13.40;2.85;;;7.30;99.90;;;;;;6343160;22;20042;-93
2024/04/21 01:06:19;;;;;;;10.10;2.83;;;7.30;99.90;;;;;;6342250;22;19987;-93
2024/04/21 01:08:45;;;;;;;8.88;2.90;;;7.30;99.90;;;;;;6384163;22;20005;-94
2024/04/21 01:11:17;;;;;;;14.45;3.17;;;7.20;99.90;;;;;;6341634;22;19996;-92
2024/04/21 01:13:43;;;;;;;11.88;2.55;;;7.20;99.90;;;;;;6342885;22;19995;-93
2024/04/21 01:16:09;;;;;;;7.68;2.53;;;7.20;99.90;;;;;;6344265;22;20071;-92
2024/04/21 01:18:34;;;;;;;9.88;3.38;;;7.10;99.90;;;;;;6345053;22;20039;-92
2024/04/21 01:21:00;;;;;;;8.75;2.83;;;7.10;99.90;;;;;;6342884;22;19995;-92
2024/04/21 01:23:26;;;;;;;12.60;3.35;;;7.10;99.90;;;;;;6343769;22;19999;-92
2024/04/21 01:25:51;;;;;;;11.55;2.80;;;7.10;99.90;;;;;;6343883;22;19995;-93
2024/04/21 01:28:17;;;;;;;8.20;2.15;;;7.00;99.90;;;;;;6343860;22;19999;-94
2024/04/21 01:30:42;;;;;;;9.30;2.40;;;7.00;99.90;;;;;;6340937;22;19995;-93
2024/04/21 01:33:08;;;;;;;5.60;2.15;;;7.00;99.90;;;;;;6340544;22;20009;-93
2024/04/21 01:35:35;;;;;;;8.50;2.42;;;6.90;99.90;;;;;;6341119;22;20035;-93
2024/04/21 01:38:01;;;;;;;6.78;2.08;;;6.90;99.90;;;;;;6341510;22;20027;-91
2024/04/21 01:40:27;;;;;;;7.03;1.77;;;6.90;99.90;;;;;;6348243;22;19999;-92
2024/04/21 01:42:52;;;;;;;7.20;1.73;;;6.90;99.90;;;;;;6348724;22;19995;-94
2024/04/21 01:45:18;;;;;;;9.10;2.63;;;6.90;99.90;;;;;;6346189;22;20002;-91
2024/04/21 01:47:44;;;;;;;9.10;2.17;;;6.80;99.90;;;;;;6362124;22;20027;-91
2024/04/21 01:50:12;;;;;;;3.55;1.70;;;6.80;99.90;;;;;;6361781;22;19988;-89
2024/04/21 01:52:38;;;;;;;7.63;1.70;;;6.80;99.90;;;;;;6361581;22;19987;-91
2024/04/21 01:55:04;;;;;;;9.45;2.28;;;6.80;99.90;;;;;;6361042;22;20019;-91
2024/04/21 01:57:30;;;;;;;7.80;1.70;;;6.80;99.90;;;;;;6360410;22;19991;-91
2024/04/21 01:59:56;;;;;;;6.28;1.70;;;6.80;99.90;;;;;;6345770;22;20302;-94
2024/04/21 02:02:22;;;;;;;7.63;1.92;;;6.80;99.90;;;;;;6343441;22;19999;-93
2024/04/21 02:04:47;;;;;;;10.55;2.22;;;6.80;99.90;;;;;;6344636;22;20002;-92
2024/04/21 02:07:13;;;;;;;9.27;1.80;;;6.80;99.90;;;;;;6344129;22;19995;-92
2024/04/21 02:09:39;;;;;;;10.95;2.00;;;6.80;99.90;;;;;;6344203;22;20014;-92
2024/04/21 02:12:05;;;;;;;8.32;1.83;;;6.70;99.90;;;;;;6343011;22;19999;-93
2024/04/21 02:14:31;;;;;;;5.45;1.60;;;6.70;99.90;;;;;;6342699;22;20008;-92
2024/04/21 02:16:56;;;;;;;6.30;1.33;;;6.70;99.90;;;;;;6350250;22;20015;-91
2024/04/21 02:19:22;;;;;;;9.77;1.88;;;6.70;99.90;;;;;;6355576;22;20047;-91
2024/04/21 02:21:48;;;;;;;5.47;1.58;;;6.70;99.90;;;;;;6351453;22;20046;-92
2024/04/21 02:24:14;;;;;;;6.90;1.63;;;6.70;99.90;;;;;;6345911;22;19999;-92
2024/04/21 02:26:40;;;;;;;7.35;1.80;;;6.60;99.90;;;;;;6347744;22;19996;-93
2024/04/21 02:29:06;;;;;;;7.03;1.60;;;6.60;99.90;;;;;;6346160;22;20044;-92
2024/04/21 02:31:32;;;;;;;4.22;1.27;;;6.60;99.90;;;;;;6344123;22;20073;-93
2024/04/21 02:33:57;;;;;;;11.55;1.90;;;6.50;99.90;;;;;;6341720;22;20007;-92
2024/04/21 02:36:23;;;;;;;6.78;1.63;;;6.50;99.90;;;;;;6341251;22;19995;-93
2024/04/21 02:38:50;;;;;;;9.75;1.60;;;6.50;99.90;;;;;;6342831;22;19995;-93
2024/04/21 02:41:16;;;;;;;5.53;1.55;;;6.40;99.90;;;;;;6340751;22;20024;-92
2024/04/21 02:43:41;;;;;;;6.45;1.80;;;6.40;99.90;;;;;;6339300;22;20476;-95
2024/04/21 02:46:07;;;;;;;8.75;1.92;;;6.40;99.90;;;;;;6339599;22;19999;-90
2024/04/21 02:48:33;;;;;;;9.73;2.05;;;6.40;99.90;;;;;;6339350;22;19999;-93
2024/04/21 02:51:00;;;;;;;8.75;2.10;;;6.30;99.90;;;;;;6339340;22;20010;-93
2024/04/21 02:53:25;;;;;;;9.05;2.20;;;6.30;99.90;;;;;;6338731;22;20036;-92
2024/04/21 02:55:51;;;;;;;9.38;2.25;;;6.30;99.90;;;;;;6340852;22;19999;-93
2024/04/21 02:58:17;;;;;;;6.32;2.22;;;6.30;99.90;;;;;;6346046;22;19999;-92
2024/04/21 03:00:43;;;;;;;8.23;2.25;;;6.20;99.90;;;;;;6348911;22;19999;-92
2024/04/21 03:03:09;;;;;;;11.63;2.20;;;6.30;99.90;;;;;;6345492;22;19999;-93
2024/04/21 03:05:35;;;;;;;5.90;1.73;;;6.20;99.90;;;;;;6347465;22;19999;-93
2024/04/21 03:08:01;;;;;;;10.90;2.15;;;6.20;99.90;;;;;;6346165;22;19991;-94
2024/04/21 03:10:27;;;;;;;9.48;2.00;;;6.20;99.90;;;;;;6342760;22;19995;-93
2024/04/21 03:12:53;;;;;;;7.60;2.05;;;6.10;99.90;;;;;;6340842;22;20406;-91
2024/04/21 03:15:18;;;;;;;10.02;1.98;;;6.10;99.90;;;;;;6339187;22;20109;-93
2024/04/21 03:17:45;;;;;;;17.10;3.03;;;6.10;99.90;;;;;;6338574;22;19999;-93
2024/04/21 03:20:10;;;;;;;7.25;2.20;;;6.10;99.90;;;;;;6341345;22;20006;-94
2024/04/21 03:22:36;;;;;;;7.35;1.83;;;6.10;99.90;;;;;;6345273;22;19999;-93
2024/04/21 03:25:02;;;;;;;11.25;2.03;;;6.10;99.90;;;;;;6350010;22;20006;-93
2024/04/21 03:27:28;;;;;;;7.78;2.90;;;6.10;99.90;;;;;;6349402;22;19995;-92
2024/04/21 03:29:54;;;;;;;15.32;3.00;;;6.10;99.90;;;;;;6341806;22;19999;-92
2024/04/21 03:32:20;;;;;;;10.73;2.35;;;6.00;99.90;;;;;;6340658;22;19991;-92
2024/04/21 03:34:51;;;;;;;14.10;2.50;;;6.00;99.90;;;;;;6340890;22;19995;-93
2024/04/21 03:37:18;;;;;;;14.40;2.22;;;6.00;99.90;;;;;;6343124;22;19999;-93
2024/04/21 03:39:44;;;;;;;5.80;2.47;;;6.00;99.90;;;;;;6391123;22;19991;-91
2024/04/21 03:42:10;;;;;;;8.57;2.72;;;6.00;99.90;;;;;;6346615;22;19999;-92
2024/04/21 03:44:36;;;;;;;16.00;2.78;;;5.90;99.90;;;;;;6347195;22;20007;-93
2024/04/21 03:47:02;;;;;;;15.32;2.45;;;5.90;99.90;;;;;;6342937;22;20437;-93
2024/04/21 03:49:27;;;;;;;9.75;2.50;;;5.90;99.90;;;;;;6342150;22;20007;-92
2024/04/21 03:51:53;;;;;;;8.60;2.42;;;5.90;99.90;;;;;;6343315;22;20007;-91
2024/04/21 03:54:19;;;;;;;7.03;2.30;;;5.90;99.90;;;;;;6342886;22;19995;-91
2024/04/21 03:56:44;;;;;;;16.08;2.63;;;5.90;99.90;;;;;;6341144;22;20041;-92
2024/04/21 03:59:10;;;;;;;17.40;2.65;;;5.90;99.90;;;;;;6340440;22;20294;-92
2024/04/21 04:01:36;;;;;;;8.75;2.50;;;5.90;99.90;;;;;;6339044;22;19995;-92
2024/04/21 04:04:02;;;;;;;15.35;2.88;;;5.90;99.90;;;;;;6339661;22;20023;-93
2024/04/21 04:06:28;;;;;;;12.52;2.55;;;5.80;99.90;;;;;;6340042;22;19999;-93
2024/04/21 04:08:55;;;;;;;10.38;2.28;;;5.90;99.90;;;;;;6340096;22;20010;-93
2024/04/21 04:11:21;;;;;;;15.43;2.47;;;5.90;99.90;;;;;;6347877;22;20010;-93
2024/04/21 04:13:47;;;;;;;11.10;2.58;;;5.90;99.90;;;;;;6344891;22;20023;-94
2024/04/21 04:16:13;;;;;;;5.95;2.13;;;5.90;99.90;;;;;;6351197;22;19983;-91
2024/04/21 04:18:38;;;;;;;11.65;2.05;;;5.90;99.90;;;;;;6348330;22;20422;-93
2024/04/21 04:21:04;;;;;;;12.68;2.97;;;5.90;99.90;;;;;;6352354;22;20047;-92
2024/04/21 04:23:30;;;;;;;14.65;2.35;;;5.90;99.90;;;;;;6353826;22;19999;-91
2024/04/21 04:25:55;;;;;;;9.23;2.10;;;5.90;99.90;;;;;;6346242;22;19995;-93
2024/04/21 04:28:22;;;;;;;13.43;2.42;;;5.90;99.90;;;;;;6353665;22;20006;-87
2024/04/21 04:30:48;;;;;;;9.98;2.20;;;6.00;99.90;;;;;;6399181;22;20043;-91
2024/04/21 04:33:14;;;;;;;9.77;2.80;;;6.00;99.90;;;;;;6357081;22;20003;-93
2024/04/21 04:35:40;;;;;;;12.23;2.10;;;6.00;99.90;;;;;;6346633;22;19999;-91
2024/04/21 04:38:05;;;;;;;10.40;2.58;;;5.90;99.90;;;;;;6343951;22;19999;-91
2024/04/21 04:40:32;;;;;;;12.90;2.53;;;5.90;99.90;;;;;;6341578;22;20001;-92
2024/04/21 04:42:58;;;;;;;15.77;3.05;;;5.90;99.90;;;;;;6341323;22;19995;-93
2024/04/21 04:45:24;;;;;;;13.95;2.25;;;5.90;99.90;;;;;;6340268;22;19995;-93
2024/04/21 04:47:50;;;;;;;12.93;2.40;;;5.90;99.90;;;;;;6341819;22;20314;-93
2024/04/21 04:50:16;;;;;;;24.05;2.70;;;5.90;99.90;;;;;;6344840;22;20006;-93
2024/04/21 04:52:41;;;;;;;14.35;2.53;;;5.90;99.90;;;;;;6340114;22;19995;-92
2024/04/21 04:55:07;;;;;;;13.02;2.58;;;5.90;99.90;;;;;;6342512;22;20006;-93
2024/04/21 04:57:33;;;;;;;12.05;2.72;;;5.90;99.90;;;;;;6344191;22;20006;-93
2024/04/21 04:59:59;;;;;;;12.05;2.47;;;5.80;99.90;;;;;;6344669;22;19995;-94
2024/04/21 05:02:25;;;;;;;9.95;2.60;;;5.80;99.90;;;;;;6345360;22;20003;-93
2024/04/21 05:04:50;;;;;;;11.38;2.60;;;5.80;99.90;;;;;;6344567;22;20007;-93
2024/04/21 05:07:16;;;;;;;7.72;3.20;;;5.80;99.90;;;;;;6343264;22;20010;-93
2024/04/21 05:09:42;;;;;;;19.80;3.50;;;5.80;99.90;;;;;;6343892;22;20011;-93
2024/04/21 05:12:08;;;;;;;12.77;2.92;;;5.80;99.90;;;;;;6343536;22;20007;-94
2024/04/21 05:14:33;;;;;;;19.85;3.25;;;5.80;99.90;;;;;;6343731;22;20002;-91
2024/04/21 05:16:59;;;;;;;14.82;2.28;;;5.80;99.90;;;;;;6343532;22;20007;-93
2024/04/21 05:19:25;;;;;;;8.70;2.92;;;5.80;99.90;;;;;;6342883;22;19991;-92
2024/04/21 05:21:50;;;;;;;13.32;2.47;;;5.80;99.90;;;;;;6342221;22;20031;-93
2024/04/21 05:24:16;;;;;;;16.15;2.70;;;5.80;99.90;;;;;;6340602;22;19998;-93
2024/04/21 05:26:42;;;;;;;14.07;2.60;;;5.80;99.90;;;;;;6338459;22;20043;-93
2024/04/21 05:29:07;;;;;;;14.27;3.10;;;5.80;99.90;;;;;;6339351;22;19991;-91
2024/04/21 05:31:33;;;;;;;16.77;3.15;;;5.80;99.90;;;;;;6338913;22;19995;-92
2024/04/21 05:33:59;;;;;;;20.25;2.88;;;5.80;99.90;;;;;;6340838;22;20006;-91
2024/04/21 05:36:24;;;;;;;13.00;2.33;;;5.80;99.90;;;;;;6339265;22;19991;-92
2024/04/21 05:38:53;;;;;;;15.60;2.90;;;5.90;99.90;;;;;;6339237;22;20003;-92
2024/04/21 05:41:19;;;;;;;15.02;2.45;;;5.90;99.90;;;;;;6342153;22;19996;-91
2024/04/21 05:43:47;;;;;;;12.90;2.40;;;5.90;99.90;;;;;;6347798;22;20005;-91
2024/04/21 05:46:13;;;;;;;17.98;2.92;;;5.90;99.90;;;;;;6351895;22;19999;-91
2024/04/21 05:48:39;;;;;;;17.98;2.88;;;5.90;99.90;;;;;;6344528;22;20046;-91
2024/04/21 05:51:05;;;;;;;16.95;2.85;;;5.80;99.90;;;;;;6390870;22;19996;-92
2024/04/21 05:53:30;;;;;;;12.30;2.50;;;5.90;99.90;;;;;;6348817;22;19995;-91
2024/04/21 05:55:56;;;;;;;20.42;3.13;;;5.90;99.90;;;;;;6343216;22;20004;-93
2024/04/21 05:58:22;;;;;;;10.07;2.88;;;5.80;99.90;;;;;;6339538;22;20398;-93
2024/04/21 06:00:47;;;;;;;10.27;2.67;;;5.90;99.90;;;;;;6380569;22;20007;-93
2024/04/21 06:03:13;;;;;;;15.60;2.72;;;5.90;99.90;;;;;;6382444;22;20003;-93
2024/04/21 06:05:39;;;;;;;13.90;2.67;;;5.90;99.90;;;;;;6344621;22;20203;-92
2024/04/21 06:08:05;;;;;;;13.02;2.40;;;6.00;99.90;;;;;;6345293;22;19999;-93
2024/04/21 06:10:32;;;;;;;14.02;2.22;;;6.00;99.90;;;;;;6339171;22;20334;-92
2024/04/21 06:12:57;;;;;;;10.25;2.30;;;6.00;99.90;;;;;;6336165;22;19995;-92
2024/04/21 06:15:23;;;;;;;13.35;2.80;;;6.10;99.90;;;;;;6336934;22;19999;-92
2024/04/21 06:17:49;;;;;;;11.82;2.33;;;6.10;99.90;;;;;;6335141;22;20002;-93
2024/04/21 06:20:15;;;;;;;12.15;2.45;;;6.10;99.90;;;;;;6335825;22;19995;-92
2024/04/21 06:22:41;;;;;;;10.35;1.85;;;6.20;99.90;;;;;;6339517;22;19995;-92
2024/04/21 06:25:07;;;;;;;18.40;2.90;;;6.30;99.90;;;;;;6346704;22;20014;-92
2024/04/21 06:27:33;;;;;;;9.95;2.22;;;6.20;99.90;;;;;;6346637;22;20003;-92
2024/04/21 06:29:59;;;;;;;13.40;2.28;;;6.20;99.90;;;;;;6346096;22;19999;-92
2024/04/21 06:32:25;;;;;;;15.38;2.25;;;6.30;99.90;;;;;;6346117;22;20000;-92
2024/04/21 06:34:51;;;;;;;9.43;2.13;;;6.20;99.90;;;;;;6341405;22;19992;-93
2024/04/21 06:37:16;;;;;;;8.77;2.25;;;6.30;99.90;;;;;;6337751;22;20002;-93
2024/04/21 06:39:42;;;;;;;10.77;1.88;;;6.30;99.90;;;;;;6335786;22;20402;-92
2024/04/21 06:42:11;;;;;;;12.57;2.30;;;6.30;99.90;;;;;;6335703;22;19996;-92
2024/04/21 06:44:38;;;;;;;8.63;1.90;;;6.40;99.90;;;;;;6335718;22;19995;-92
2024/04/21 06:47:05;;;;;;;14.82;2.45;;;6.40;99.90;;;;;;6335592;22;20007;-92
2024/04/21 06:49:36;;;;;;;12.45;1.98;;;6.40;99.90;;;;;;6336087;22;20457;-91
2024/04/21 06:52:05;;;;;;;18.80;3.00;;;6.50;99.90;;;;;;6335942;22;20071;-93
2024/04/21 06:54:31;;;;;;;7.95;2.00;;;6.50;99.90;;;;;;6334892;22;20012;-92
2024/04/21 06:56:56;;;;;;;9.07;2.03;;;6.60;99.90;;;;;;6336649;22;20015;-92
2024/04/21 06:59:22;;;;;;;8.77;2.03;;;6.60;99.90;;;;;;6333677;22;19999;-92
2024/04/21 07:01:49;;;;;;;7.38;2.10;;;6.70;99.90;;;;;;6335581;22;19999;-92
2024/04/21 07:04:15;;;;;;;13.55;1.90;;;6.70;99.90;;;;;;6378072;22;20074;-92
2024/04/21 07:06:41;;;;;;;6.78;1.80;;;6.80;99.90;;;;;;6334341;22;19999;-92
2024/04/21 07:09:06;;;;;;;13.68;2.58;;;6.80;99.90;;;;;;6334533;22;20415;-93
2024/04/21 07:11:32;;;;;;;13.43;2.38;;;6.80;99.90;;;;;;6334634;22;20037;-92
2024/04/21 07:13:58;;;;;;;14.70;2.00;;;6.80;99.90;;;;;;6335058;22;20009;-91
2024/04/21 07:16:24;;;;;;;11.73;1.70;;;6.80;99.90;;;;;;6332706;22;20078;-92
2024/04/21 07:18:49;;;;;;;10.57;1.73;;;6.70;99.90;;;;;;6334807;22;20014;-90
2024/04/21 07:21:15;;;;;;;16.38;1.98;;;6.70;99.90;;;;;;6333997;22;20003;-91
2024/04/21 07:23:40;;;;;;;8.20;1.70;;;6.60;99.90;;;;;;6334586;22;20098;-92
2024/04/21 07:26:06;;;;;;;9.02;2.03;;;6.60;99.90;;;;;;6334274;22;20014;-93
2024/04/21 07:28:32;;;;;;;12.05;1.90;;;6.70;99.90;;;;;;6335866;22;19999;-93
2024/04/21 07:30:57;;;;;;;8.38;1.67;;;6.70;99.90;;;;;;6335676;22;20024;-93
2024/04/21 07:33:23;;;;;;;12.18;1.75;;;6.70;99.90;;;;;;6334897;22;20000;-92
2024/04/21 07:35:49;;;;;;;8.02;1.88;;;6.80;99.90;;;;;;6376241;22;20000;-94
2024/04/21 07:38:15;;;;;;;8.88;1.75;;;6.80;99.90;;;;;;6335942;22;20023;-92
2024/04/21 07:40:40;;;;;;;4.75;1.45;;;6.80;99.90;;;;;;6341293;22;19999;-95
2024/04/21 07:43:08;;;;;;;4.50;1.50;;;6.90;99.90;;;;;;6345423;22;20422;-93
2024/04/21 07:45:33;;;;;;;5.13;1.20;;;7.00;99.90;;;;;;6350822;22;20010;-92
2024/04/21 07:48:00;;;;;;;8.70;3.30;;;7.20;99.90;;;;;;6343455;22;19995;-93
2024/04/21 07:50:26;;;;;;;9.70;1.95;;;7.30;99.90;;;;;;6341470;22;20032;-94
2024/04/21 07:52:52;;;;;;;7.90;1.73;;;7.50;99.90;;;;;;6342718;22;20005;-94
2024/04/21 07:55:18;;;;;;;8.55;1.52;;;7.60;99.90;;;;;;6343256;22;19995;-94
2024/04/21 07:57:43;;;;;;;9.52;1.60;;;7.70;99.90;;;;;;6342447;22;20118;-94
2024/04/21 08:00:10;;;;;;;8.02;1.70;;;7.80;99.90;;;;;;6344657;22;20009;-93
2024/04/21 08:02:35;;;;;;;11.70;1.60;;;7.80;99.90;;;;;;6341290;22;20003;-91
2024/04/21 08:05:01;;;;;;;7.68;1.65;;;7.80;99.90;;;;;;6384471;22;19999;-90
2024/04/21 08:07:27;;;;;;;15.40;1.85;;;7.90;99.90;;;;;;6343205;22;19992;-91
2024/04/21 08:09:53;;;;;;;8.63;2.42;;;8.10;99.90;;;;;;6394828;22;19998;-91
2024/04/21 08:12:18;;;;;;;7.63;2.22;;;8.10;99.90;;;;;;6351450;22;20009;-93
2024/04/21 08:14:44;;;;;;;7.03;1.10;;;8.20;99.90;;;;;;6347272;22;19996;-93
2024/04/21 08:17:09;;;;;;;8.50;1.75;;;8.30;99.90;;;;;;6350241;22;19992;-93
2024/04/21 08:19:35;;;;;;;7.97;1.63;;;8.30;99.90;;;;;;6349512;22;19991;-92
2024/04/21 08:22:01;;;;;;;11.20;1.38;;;8.40;99.90;;;;;;6348679;22;20024;-91
2024/04/21 08:24:26;;;;;;;10.10;1.52;;;8.60;99.90;;;;;;6347234;22;19987;-94
2024/04/21 08:26:54;;;;;;;10.48;1.35;;;8.60;99.90;;;;;;6341171;22;20342;-93
2024/04/21 08:29:23;;;;;;;6.70;1.70;;;8.70;99.50;;;;;;6341266;22;19991;-92
2024/04/21 08:31:50;;;;;;;8.02;1.50;;;8.70;99.10;;;;;;6338394;22;20017;-94
2024/04/21 08:34:16;;;;;;;5.05;1.23;;;8.80;98.90;;;;;;6342488;22;20088;-94
2024/04/21 08:36:41;;;;;;;6.32;1.20;;;8.90;98.40;;;;;;6342221;22;20011;-94
2024/04/21 08:39:07;;;;;;;6.30;1.27;;;9.00;97.80;;;;;;6361943;22;19988;-90
2024/04/21 08:41:42;;;;;;;9.00;1.40;;;9.10;96.90;;;;;;6362654;22;19991;-90
2024/04/21 08:44:13;;;;;;;8.05;1.85;;;9.20;96.10;;;;;;6362152;22;20010;-93
2024/04/21 08:46:38;;;;;;;;;;;9.30;95.90;;;;;;6362988;22;19991;-93
2024/04/21 08:49:06;;;;;;;3.53;1.05;;;9.40;95.50;;;;;;6350513;22;19931;-95
2024/04/21 08:51:35;;;;;;;9.40;1.30;;;9.40;94.80;;;;;;6382304;22;19995;-95
2024/04/21 08:54:02;;;;;;;9.40;1.40;;;9.40;94.20;;;;;;6340283;22;20479;-95
2024/04/21 08:56:30;;;;;;;8.75;1.00;;;9.40;93.70;;;;;;6339124;22;20030;-95
2024/04/21 08:58:56;;;;;;;5.20;1.23;;;9.50;93.40;;;;;;6337672;22;20006;-96
2024/04/21 09:01:23;;;;;;;8.95;1.85;;;9.60;93.00;;;;;;6342458;22;19995;-95
2024/04/21 09:03:50;;;;;;;6.35;1.10;;;9.70;92.60;;;;;;6343688;22;20010;-95
2024/04/21 09:06:16;;;;;;;9.43;1.35;;;9.70;91.90;;;;;;6347906;22;19995;-95
2024/04/21 09:08:43;;;;;;;9.50;1.10;;;9.80;91.70;;;;;;6350244;22;19995;-95
2024/04/21 09:11:09;;;;;;;12.20;2.05;;;9.90;91.10;;;;;;6350490;22;19995;-94
2024/04/21 09:13:34;;;;;;;9.98;1.60;;;10.00;90.80;;;;;;6350258;22;19999;-94
2024/04/21 09:16:01;;;;;;;10.77;1.38;;;10.10;90.20;;;;;;6345297;22;19999;-95
2024/04/21 09:18:27;;;;;;;8.02;1.45;;;10.10;89.70;;;;;;6350482;22;19995;-94
2024/04/21 09:20:53;;;;;;;11.88;1.60;;;10.20;89.60;;;;;;6348154;22;19995;-95
2024/04/21 09:23:18;;;;;;;9.95;1.45;;;10.30;88.80;;;;;;6350038;22;20014;-94
2024/04/21 09:25:44;;;;;;;8.40;1.33;;;10.40;88.70;;;;;;6349762;22;19991;-95
2024/04/21 09:28:10;;;;;;;13.18;2.08;;;10.50;88.30;;;;;;6349018;22;19995;-93
2024/04/21 09:30:36;;;;;;;7.30;1.30;;;10.60;87.90;;;;;;6390167;22;20010;-96
2024/04/21 09:33:03;;;;;;;7.72;1.10;;;10.50;87.30;;;;;;6348880;22;20070;-93
2024/04/21 09:35:30;;;;;;;7.97;1.35;;;10.60;87.40;;;;;;6348952;22;20011;-93
2024/04/21 09:37:56;;;;;;;6.30;1.33;;;10.60;86.80;;;;;;6351414;22;20099;-95
2024/04/21 09:40:24;;;;;;;10.80;1.40;;;10.70;86.80;;;;;;6352759;22;20019;-93
2024/04/21 09:42:52;;;;;;;12.07;1.70;;;10.80;86.30;;;;;;6350686;22;19987;-94
2024/04/21 09:45:18;;;;;;;7.13;1.40;;;10.90;85.70;;;;;;6355415;22;19988;-95
2024/04/21 09:47:46;;;;;;;9.63;1.42;;;10.90;85.10;;;;;;6358351;22;19999;-94
2024/04/21 09:50:12;;;;;;;9.13;1.38;;;10.90;85.00;;;;;;6350579;22;20100;-95
2024/04/21 09:52:38;;;;;;;4.80;1.23;;;11.00;84.60;;;;;;6340278;22;20430;-93
2024/04/21 09:55:05;;;;;;;6.80;1.20;;;11.10;84.10;;;;;;6338295;22;19999;-94
2024/04/21 09:57:36;;;;;;;5.05;1.05;;;11.30;83.60;;;;;;6339126;22;20422;-94
2024/04/21 10:00:05;;;;;;;6.65;1.70;;;11.50;83.50;;;;;;6340251;22;20010;-94
2024/04/21 10:02:43;;;;;;;10.65;2.00;;;11.60;82.10;;;;;;6343096;22;20395;-94
2024/04/21 10:05:10;;;;;;;10.23;1.83;;;11.80;81.70;;;;;;6346558;22;20079;-94
2024/04/21 10:07:37;;;;;;;10.88;1.70;;;12.00;81.30;;;;;;6339699;22;20010;-94
2024/04/21 10:10:11;;;;;;;8.05;1.25;;;12.20;80.40;;;;;;6337577;22;19999;-94
2024/04/21 10:12:38;;;;;;;9.38;1.33;;;12.30;79.90;;;;;;6377355;22;19995;-93
2024/04/21 10:15:06;;;;;;;10.55;1.35;;;12.50;79.40;;;;;;6336770;22;19999;-94
2024/04/21 10:17:32;;;;;;;26.80;3.25;;;12.60;78.80;;;;;;6336604;22;19995;-94
2024/04/21 10:20:06;;;;;;;5.50;1.30;;;12.70;77.70;;;;;;6338673;22;19999;-95
2024/04/21 10:22:36;;;;;;;5.93;1.20;;;12.70;76.70;;;;;;6336961;22;19999;-93
2024/04/21 10:25:07;;;;;;;9.77;1.40;;;12.70;76.20;;;;;;6337164;22;19995;-93
2024/04/21 10:27:33;;;;;;;11.40;1.80;;;12.80;75.50;;;;;;6339910;22;20098;-94
2024/04/21 10:30:11;;;;;;;8.38;1.63;;;12.90;74.70;;;;;;6337537;22;20009;-93
2024/04/21 10:32:37;;;;;;;10.95;2.22;;;12.90;74.10;;;;;;6338284;22;19996;-93
2024/04/21 10:35:03;;;;;;;13.55;1.60;;;13.00;74.30;;;;;;6336687;22;20005;-93
2024/04/21 10:37:30;;;;;;;9.10;1.55;;;12.90;74.50;;;;;;6336095;22;19996;-94
2024/04/21 10:40:04;;;;;;;6.05;1.33;;;12.90;74.30;;;;;;6335889;22;20074;-95
2024/04/21 10:42:34;;;;;;;9.63;2.00;;;12.90;74.20;;;;;;6335845;22;19999;-94
2024/04/21 10:45:00;;;;;;;9.18;1.23;;;12.90;74.20;;;;;;6337213;22;20010;-94
2024/04/21 10:47:29;;;;;;;8.73;1.73;;;12.90;74.00;;;;;;6296757;22;20075;-93
2024/04/21 10:49:56;;;;;;;9.68;1.40;;;12.90;74.30;;;;;;6335945;22;20040;-92
2024/04/21 10:52:21;;;;;;;6.13;1.70;;;12.90;74.20;;;;;;6336167;22;20496;-94
2024/04/21 10:54:48;;;;;;;11.02;1.35;;;13.00;73.90;;;;;;6338971;22;20005;-95
2024/04/21 10:57:14;;;;;;;8.80;1.30;;;13.20;73.50;;;;;;6341059;22;19999;-93
2024/04/21 10:59:41;;;;;;;9.48;1.35;;;13.30;73.30;;;;;;6340204;22;20003;-94
2024/04/21 11:02:06;;;;;;;5.40;1.55;;;13.40;72.60;;;;;;6338840;22;20066;-93
2024/04/21 11:04:35;;;;;;;7.95;1.48;;;13.40;72.20;;;;;;6340153;22;20010;-93
2024/04/21 11:07:01;;;;;;;9.95;2.25;;;13.40;72.30;;;;;;6335149;22;20009;-94
2024/04/21 11:09:27;;;;;;;8.05;1.42;;;13.40;72.20;;;;;;6335588;22;19999;-94
2024/04/21 11:11:54;;;;;;;8.13;1.10;;;13.50;71.60;;;;;;6335525;22;19999;-94
2024/04/21 11:14:20;;;;;;;9.70;1.33;;;13.60;71.10;;;;;;6337557;22;20047;-94
2024/04/21 11:16:55;;;;;;;10.98;1.38;;;13.90;70.50;;;;;;6340344;22;20011;-94
2024/04/21 11:19:21;;;;;;;10.40;1.60;;;14.20;69.60;;;;;;6337597;22;19995;-96
2024/04/21 11:21:48;;;;;;;6.20;1.60;;;14.40;69.00;;;;;;6337918;22;20019;-95
2024/04/21 11:24:15;;;;;;;8.73;1.35;;;14.60;68.50;;;;;;6343387;22;20006;-95
2024/04/21 11:26:42;;;;;;;8.00;1.38;;;14.80;68.20;;;;;;6343858;22;19995;-95
2024/04/21 11:29:07;;;;;;;8.23;1.48;;;15.00;67.50;;;;;;6339085;22;20039;-95
2024/04/21 11:31:35;;;;;;;7.03;1.55;;;15.10;66.70;;;;;;6340802;22;20003;-95
2024/04/21 11:34:04;;;;;;;9.35;1.55;;;15.00;65.70;;;;;;6345146;22;19998;-95
2024/04/21 11:36:33;;;;;;;5.10;1.20;;;14.90;65.80;;;;;;6305733;22;19995;-95
2024/04/21 11:38:59;;;;;;;6.57;1.95;;;14.90;65.70;;;;;;6353314;22;19991;-95
2024/04/21 11:41:25;;;;;;;14.63;1.83;;;14.80;64.70;;;;;;6312390;22;20023;-96
2024/04/21 11:43:52;;;;;;;6.63;1.25;;;14.80;64.60;;;;;;6344604;22;20010;-96
2024/04/21 11:46:19;;;;;;;7.20;1.73;;;14.80;65.20;;;;;;6312510;22;20007;-94
2024/04/21 11:48:51;;;;;;;6.75;1.73;;;15.10;65.20;;;;;;6353158;22;19992;-95
2024/04/21 11:51:17;;;;;;;8.73;1.42;;;15.20;64.50;;;;;;6351568;22;19995;-96
2024/04/21 11:53:44;;;;;;;10.35;1.70;;;15.30;64.50;;;;;;6398187;22;20015;-94
2024/04/21 11:56:10;;;;;;;6.82;1.60;;;15.30;64.30;;;;;;6355188;22;20040;-95
2024/04/21 11:58:35;;;;;;;4.00;1.08;;;15.40;64.40;;;;;;6353773;22;20003;-96
2024/04/21 12:01:03;;;;;;;12.55;1.70;;;15.60;64.40;;;;;;6358316;22;19999;-96
2024/04/21 12:03:29;;;;;;;6.95;1.35;;;15.80;64.00;;;;;;6357271;22;19991;-95
2024/04/21 12:05:55;;;;;;;5.70;1.23;;;15.90;63.70;;;;;;6352760;22;19991;-95
2024/04/21 12:08:21;;;;;;;10.00;1.77;;;16.00;64.00;;;;;;6310272;22;19991;-96
2024/04/21 12:10:46;;;;;;;11.07;2.15;;;16.00;63.80;;;;;;6393474;22;20002;-95
2024/04/21 12:13:12;;;;;;;8.45;1.80;;;15.80;63.90;;;;;;6349198;22;19992;-95
2024/04/21 12:15:38;;;;;;;8.02;1.55;;;15.70;64.10;;;;;;6401079;22;19995;-94
2024/04/21 12:18:11;;;;;;;4.50;1.25;;;15.50;63.40;;;;;;6360558;22;19983;-95
2024/04/21 12:20:37;;;;;;;10.15;2.63;;;15.60;64.40;;;;;;6362147;22;20007;-95
2024/04/21 12:23:08;;;;;;;5.18;1.48;;;15.70;63.80;;;;;;6361371;22;19995;-95
2024/04/21 12:25:34;;;;;;;9.20;1.90;;;15.80;63.00;;;;;;6359690;22;19991;-95
2024/04/21 12:28:00;;;;;;;4.93;1.23;;;15.90;63.00;;;;;;6356664;22;19995;-96
2024/04/21 12:30:26;;;;;;;7.07;1.80;;;16.20;63.30;;;;;;6355860;22;20006;-95
2024/04/21 12:32:52;;;;;;;10.73;1.55;;;16.50;62.70;;;;;;6356299;22;19991;-95
2024/04/21 12:35:19;;;;;;;4.03;1.10;;;16.70;61.60;;;;;;6360476;22;20018;-94
2024/04/21 12:37:46;;;;;;;3.83;1.13;;;16.80;59.80;;;;;;6363318;22;20008;-94
2024/04/21 12:40:12;;;;;;;9.75;1.65;;;16.90;59.40;;;;;;6363053;22;19983;-94
2024/04/21 12:42:38;;;;;;;11.93;1.70;;;17.00;58.60;;;;;;6362506;22;19987;-93
2024/04/21 12:45:06;;;;;;;4.57;1.48;;;17.10;57.80;;;;;;6362506;22;20002;-95